Time;durP1;ratioP1;P1;durP2;ratioP2;P2;SDS_P1;SDS_P2;PMS_P1;PMS_P2;Temp;Humidity;BMP_temperature;BMP_pressure;BME280_temperature;BME280_humidity;BME280_pressure;Samples;Min_cycle;Max_cycle;Signal;HPM_P1;HPM_P2
2022/10/28 00:01:24;;;;;;;8.00;5.47;;;;;;;13.59;47.99;100854.16;5007802;28;20053;-80
2022/10/28 00:03:55;;;;;;;8.15;5.80;;;;;;;13.39;47.84;100820.97;5006700;28;20022;-80
2022/10/28 00:06:26;;;;;;;10.23;6.20;;;;;;;13.58;48.37;100858.63;4992380;28;20080;-80
2022/10/28 00:08:52;;;;;;;8.93;5.63;;;;;;;13.37;48.40;100823.78;5007308;28;20022;-80
2022/10/28 00:11:20;;;;;;;11.68;6.50;;;;;;;13.54;48.66;100851.16;4990998;28;20052;-80
2022/10/28 00:13:46;;;;;;;9.18;6.65;;;;;;;12.90;48.53;100751.94;4991758;28;20029;-80
2022/10/28 00:16:23;;;;;;;11.90;7.05;;;;;;;13.16;48.82;100808.31;4992204;28;20030;-80
2022/10/28 00:18:52;;;;;;;10.77;7.93;;;;;;;13.49;49.01;100869.41;4991928;28;20029;-80
2022/10/28 00:21:21;;;;;;;13.00;9.13;;;;;;;12.70;49.05;100735.50;4991977;28;20450;-80
2022/10/28 00:23:46;;;;;;;10.52;8.00;;;;;;;13.06;49.01;100786.41;4992214;28;20454;-80
2022/10/28 00:26:18;;;;;;;10.27;6.90;;;;;;;13.54;49.17;100859.13;4990867;28;20026;-79
2022/10/28 00:28:45;;;;;;;;;;;;;;;13.33;49.93;100859.59;4992372;28;20022;-80
2022/10/28 00:31:11;;;;;;;9.85;5.57;;;;;;;12.48;49.21;100710.41;5007116;28;19916;-80
2022/10/28 00:33:37;;;;;;;8.15;5.63;;;;;;;13.44;49.22;100866.41;4992241;28;20516;-80
2022/10/28 00:36:34;;;;;;;9.32;5.43;;;;;;;13.42;50.33;100863.09;5007242;28;20101;-80
2022/10/28 00:39:01;;;;;;;6.65;5.38;;;;;;;13.36;49.41;100864.56;4991797;28;20121;-80
2022/10/28 00:41:32;;;;;;;8.38;5.70;;;;;;;13.18;49.88;100835.53;4992055;28;20026;-80
2022/10/28 00:44:36;;;;;;;9.23;6.03;;;;;;;13.33;50.61;100863.06;4991896;28;20023;-80
2022/10/28 00:47:04;;;;;;;6.95;5.20;;;;;;;12.88;49.87;100815.72;5006965;28;20037;-80
2022/10/28 00:49:33;;;;;;;10.88;6.10;;;;;;;12.87;50.04;100802.63;4991999;28;20109;-80
2022/10/28 00:52:06;;;;;;;7.72;5.43;;;;;;;13.23;50.15;100835.84;4991840;28;20026;-79
2022/10/28 00:54:32;;;;;;;7.38;5.55;;;;;;;13.03;49.64;100773.50;5006982;28;20081;-79
2022/10/28 00:57:01;;;;;;;8.30;5.13;;;;;;;13.36;49.91;100830.91;4991764;28;20027;-80
2022/10/28 00:59:35;;;;;;;8.38;5.13;;;;;;;13.36;50.01;100833.56;4991643;28;20414;-80
2022/10/28 01:02:00;;;;;;;8.07;5.57;;;;;;;12.56;50.31;100720.19;4990418;28;20022;-80
2022/10/28 01:04:26;;;;;;;5.68;5.18;;;;;;;12.56;50.00;100714.91;4991898;28;20105;-80
2022/10/28 01:06:53;;;;;;;9.25;5.90;;;;;;;13.37;49.91;100847.66;4991561;28;20125;-80
2022/10/28 01:09:18;;;;;;;8.82;5.88;;;;;;;13.24;50.42;100824.25;4991724;28;20105;-80
2022/10/28 01:11:58;;;;;;;8.40;5.97;;;;;;;13.50;50.49;100852.50;4991682;28;20093;-80
2022/10/28 01:14:48;;;;;;;7.88;5.93;;;;;;;12.66;50.65;100716.44;4991626;28;20023;-80
2022/10/28 01:17:47;;;;;;;8.20;5.70;;;;;;;12.79;50.29;100733.69;4991817;28;20113;-80
2022/10/28 01:20:43;;;;;;;9.10;6.22;;;;;;;13.46;50.86;100848.50;4991701;28;20026;-80
2022/10/28 01:23:20;;;;;;;8.15;5.88;;;;;;;13.45;50.77;100849.50;4991628;28;20080;-79
2022/10/28 01:26:06;;;;;;;9.48;7.03;;;;;;;13.46;50.85;100845.84;5007976;28;20053;-80
2022/10/28 01:28:58;;;;;;;9.68;7.00;;;;;;;13.47;50.69;100848.34;4994065;28;20458;-80
2022/10/28 01:31:45;;;;;;;10.80;6.65;;;;;;;13.30;51.38;100813.00;4995392;28;20023;-80
2022/10/28 01:34:55;;;;;;;13.35;6.47;;;;;;;13.33;51.55;100830.41;4995208;28;20085;-80
2022/10/28 01:38:08;;;;;;;10.88;6.53;;;;;;;13.35;51.40;100839.84;4997170;28;20092;-80
2022/10/28 01:40:58;;;;;;;9.85;6.57;;;;;;;13.35;51.58;100837.19;5002517;28;20038;-80
2022/10/28 01:43:30;;;;;;;7.15;6.30;;;;;;;13.22;51.23;100797.06;5009947;28;20030;-79
2022/10/28 01:46:15;;;;;;;;;;;;;;;13.20;52.88;100835.34;5010352;28;20114;-80
2022/10/28 01:48:47;;;;;;;6.95;6.15;;;;;;;11.80;51.36;100614.38;4993426;28;19913;-80
2022/10/28 01:51:18;;;;;;;9.07;6.45;;;;;;;13.23;51.98;100843.00;4994661;28;20081;-80
2022/10/28 01:53:48;;;;;;;9.88;6.75;;;;;;;13.21;52.01;100837.84;4994656;28;20030;-80
2022/10/28 01:56:20;;;;;;;8.90;6.47;;;;;;;12.75;52.38;100785.34;4994657;28;20110;-80
2022/10/28 01:58:47;;;;;;;9.20;6.95;;;;;;;12.83;52.01;100783.56;4994648;28;20030;-80
2022/10/28 02:01:13;;;;;;;12.48;7.13;;;;;;;12.62;52.68;100741.56;4994575;28;20032;-80
2022/10/28 02:03:38;;;;;;;9.60;6.55;;;;;;;12.83;52.90;100798.63;4994777;28;20026;-80
2022/10/28 02:06:10;;;;;;;8.27;6.30;;;;;;;13.01;52.88;100807.28;4993024;28;20026;-80
2022/10/28 02:09:00;;;;;;;8.25;6.95;;;;;;;13.25;53.22;100844.47;4994307;28;20463;-80
2022/10/28 02:11:28;;;;;;;13.40;7.65;;;;;;;13.25;53.36;100848.97;4994443;28;20022;-79
2022/10/28 02:14:35;;;;;;;11.48;6.68;;;;;;;13.26;54.05;100850.63;4994803;28;20029;-80
2022/10/28 02:17:07;;;;;;;8.20;7.13;;;;;;;13.21;53.33;100853.75;4994380;28;20027;-80
2022/10/28 02:19:50;;;;;;;7.95;7.15;;;;;;;13.23;53.49;100858.91;5009033;28;20048;-80
2022/10/28 02:22:37;;;;;;;7.80;6.18;;;;;;;13.14;54.20;100855.38;4994023;28;20056;-80
2022/10/28 02:25:12;;;;;;;10.23;6.68;;;;;;;13.14;53.55;100865.97;4993962;28;20018;-80
2022/10/28 02:28:02;;;;;;;9.45;6.95;;;;;;;13.11;54.14;100853.03;4993937;28;20046;-80
2022/10/28 02:30:44;;;;;;;7.82;6.93;;;;;;;12.92;54.14;100832.13;5009234;28;20404;-80
2022/10/28 02:33:13;;;;;;;9.50;6.78;;;;;;;12.53;54.19;100774.34;4992507;28;20018;-80
2022/10/28 02:35:59;;;;;;;12.65;7.13;;;;;;;13.05;54.47;100857.16;4993722;28;20022;-80
2022/10/28 02:38:38;;;;;;;8.98;6.90;;;;;;;12.88;54.43;100842.22;4992048;28;20029;-80
2022/10/28 02:41:11;;;;;;;10.45;7.05;;;;;;;12.23;54.22;100735.16;4993935;28;20561;-80
2022/10/28 02:43:41;;;;;;;8.57;7.03;;;;;;;11.62;53.95;100628.47;4992475;28;20022;-80
2022/10/28 02:46:08;;;;;;;12.05;7.07;;;;;;;12.89;53.68;100827.13;4993610;28;20034;-80
2022/10/28 02:48:46;;;;;;;14.20;6.85;;;;;;;12.90;53.81;100839.41;4993729;28;20100;-80
2022/10/28 02:51:19;;;;;;;8.40;7.20;;;;;;;13.03;54.34;100877.72;4993730;28;20025;-80
2022/10/28 02:53:58;;;;;;;8.27;5.97;;;;;;;12.97;54.21;100873.06;4993678;28;20498;-80
2022/10/28 02:56:23;;;;;;;10.07;7.28;;;;;;;12.08;54.19;100727.00;4993642;28;20052;-80
2022/10/28 02:58:49;;;;;;;9.93;6.93;;;;;;;12.82;54.29;100857.94;4993716;28;20490;-80
2022/10/28 03:01:15;;;;;;;9.93;6.78;;;;;;;11.16;54.21;100595.34;4993506;28;20026;-80
2022/10/28 03:03:41;;;;;;;10.70;7.25;;;;;;;12.22;54.06;100770.56;4993382;28;20491;-80
2022/10/28 03:06:07;;;;;;;8.30;7.25;;;;;;;12.89;54.12;100869.56;4993408;28;20050;-80
2022/10/28 03:08:32;;;;;;;8.85;7.05;;;;;;;12.03;54.04;100742.53;4993008;28;20057;-80
2022/10/28 03:10:58;;;;;;;9.82;7.10;;;;;;;12.23;54.16;100766.94;4993429;28;20023;-80
2022/10/28 03:13:23;;;;;;;9.38;7.35;;;;;;;10.91;54.30;100573.19;4993330;28;20392;-80
2022/10/28 03:15:48;;;;;;;10.65;7.10;;;;;;;12.60;54.63;100854.84;4993197;28;20161;-80
2022/10/28 03:18:14;;;;;;;8.45;7.18;;;;;;;12.36;54.85;100838.81;4992132;28;20065;-80
2022/10/28 03:20:39;;;;;;;9.95;7.82;;;;;;;11.87;55.08;100750.34;4991676;28;20023;-79
2022/10/28 03:23:05;;;;;;;10.00;7.90;;;;;;;12.49;55.10;100838.41;4993017;28;20037;-80
2022/10/28 03:25:30;;;;;;;9.05;6.97;;;;;;;12.27;55.19;100824.72;4992893;28;20026;-80
2022/10/28 03:27:55;;;;;;;10.38;7.38;;;;;;;12.39;55.18;100842.00;4993206;28;20022;-80
2022/10/28 03:30:21;;;;;;;10.75;7.45;;;;;;;12.54;55.01;100891.72;4992828;28;20514;-80
2022/10/28 03:32:46;;;;;;;9.52;8.15;;;;;;;12.01;55.77;100781.56;4992797;28;20469;-80
2022/10/28 03:35:12;;;;;;;14.80;8.75;;;;;;;11.96;55.72;100783.84;4993064;28;20470;-80
2022/10/28 03:37:42;;;;;;;14.80;8.75;;;;;;;12.66;55.78;100888.69;4992791;28;20053;-80
2022/10/28 03:40:08;;;;;;;13.43;9.35;;;;;;;12.26;55.84;100823.06;4992743;28;20097;-80
2022/10/28 03:42:34;;;;;;;15.95;10.15;;;;;;;12.65;56.05;100887.03;4992799;28;20022;-80
2022/10/28 03:44:59;;;;;;;16.08;9.90;;;;;;;11.79;55.95;100753.78;4992628;28;20022;-80
2022/10/28 03:47:24;;;;;;;11.50;9.30;;;;;;;12.71;56.29;100902.28;4992779;28;20106;-80
2022/10/28 03:49:50;;;;;;;13.32;8.73;;;;;;;12.05;56.01;100796.97;4991918;28;20029;-80
2022/10/28 03:52:15;;;;;;;12.20;9.77;;;;;;;12.52;55.86;100852.16;4992623;28;20050;-79
2022/10/28 03:54:41;;;;;;;13.35;9.43;;;;;;;11.70;56.33;100726.41;4992521;28;20022;-80
2022/10/28 03:57:06;;;;;;;12.05;10.10;;;;;;;12.64;56.13;100895.13;4992508;28;20089;-80
2022/10/28 03:59:32;;;;;;;13.00;10.25;;;;;;;11.99;56.30;100786.19;4992312;28;20018;-80
2022/10/28 04:01:57;;;;;;;17.65;11.55;;;;;;;11.83;56.81;100754.28;5007538;28;20022;-80
2022/10/28 04:04:22;;;;;;;16.48;11.02;;;;;;;12.55;56.69;100865.09;4992498;28;20022;-79
2022/10/28 04:06:48;;;;;;;18.40;12.10;;;;;;;12.83;57.07;100936.47;4990917;28;20422;-79
2022/10/28 04:09:13;;;;;;;17.75;11.73;;;;;;;12.10;56.61;100777.97;4992268;28;20101;-80
2022/10/28 04:11:38;;;;;;;17.70;13.30;;;;;;;11.69;56.69;100706.22;5007331;28;20030;-80
2022/10/28 04:14:04;;;;;;;19.33;12.88;;;;;;;13.04;57.29;100934.22;4992113;28;20026;-80
2022/10/28 04:16:29;;;;;;;24.73;14.90;;;;;;;12.60;57.17;100823.03;4992155;28;20022;-80
2022/10/28 04:18:55;;;;;;;23.52;15.38;;;;;;;13.03;57.19;100883.03;4992092;28;20384;-80
2022/10/28 04:21:20;;;;;;;32.20;17.85;;;;;;;13.18;58.01;100898.34;4992302;28;20033;-80
2022/10/28 04:23:45;;;;;;;44.13;22.33;;;;;;;12.71;58.97;100809.53;4992088;28;20030;-80
2022/10/28 04:26:11;;;;;;;44.97;23.88;;;;;;;13.08;59.25;100879.06;4992156;28;20396;-79
2022/10/28 04:28:36;;;;;;;49.50;26.20;;;;;;;13.14;60.65;100878.41;4990831;28;20125;-80
2022/10/28 04:31:02;;;;;;;51.47;25.58;;;;;;;12.89;61.07;100837.75;4992055;28;20411;-80
2022/10/28 04:33:28;;;;;;;47.45;24.27;;;;;;;13.02;61.69;100857.50;4991995;28;20076;-80
2022/10/28 04:35:53;;;;;;;60.55;28.48;;;;;;;12.66;61.70;100806.53;4992104;28;20110;-80
2022/10/28 04:38:18;;;;;;;63.97;27.55;;;;;;;12.84;62.10;100821.50;4991927;28;20085;-80
2022/10/28 04:40:47;;;;;;;63.60;28.92;;;;;;;12.83;62.57;100814.53;4991901;28;20022;-80
2022/10/28 04:43:13;;;;;;;71.07;29.80;;;;;;;12.80;62.89;100805.09;4990598;28;20042;-80
2022/10/28 04:45:38;;;;;;;62.45;28.42;;;;;;;12.91;63.26;100817.22;4991667;28;20490;-80
2022/10/28 04:48:04;;;;;;;81.20;31.55;;;;;;;12.74;64.05;100792.47;4991647;28;20567;-80
2022/10/28 04:50:30;;;;;;;77.88;32.95;;;;;;;12.80;64.48;100797.13;4991607;28;20019;-80
2022/10/28 04:52:55;;;;;;;72.35;32.22;;;;;;;12.79;64.57;100802.59;4991699;28;20022;-80
2022/10/28 04:55:20;;;;;;;80.75;33.67;;;;;;;12.57;65.18;100766.91;5006805;28;20118;-80
2022/10/28 04:57:57;;;;;;;89.40;31.00;;;;;;;12.93;65.94;100824.00;4991841;28;20030;-80
2022/10/28 05:00:23;;;;;;;75.78;31.45;;;;;;;13.11;65.42;100849.56;4992436;28;20026;-80
2022/10/28 05:02:49;;;;;;;79.75;32.70;;;;;;;13.63;65.71;100906.75;4994349;28;20033;-80
2022/10/28 05:05:15;;;;;;;86.65;34.53;;;;;;;13.73;65.67;100913.72;4995365;28;20030;-80
2022/10/28 05:07:40;;;;;;;84.63;32.15;;;;;;;12.98;65.79;100783.75;4994210;28;20097;-80
2022/10/28 05:10:06;;;;;;;92.18;34.85;;;;;;;13.15;66.29;100824.38;4994263;28;20026;-80
2022/10/28 05:12:31;;;;;;;77.22;33.42;;;;;;;13.49;66.44;100893.28;4994205;28;20034;-80
2022/10/28 05:14:57;;;;;;;81.15;32.40;;;;;;;13.64;66.75;100894.31;4995746;28;20023;-80
2022/10/28 05:17:22;;;;;;;76.82;31.15;;;;;;;13.13;67.16;100813.09;4995482;28;20546;-80
2022/10/28 05:19:48;;;;;;;82.80;32.85;;;;;;;13.11;67.18;100801.84;4993841;28;20026;-80
2022/10/28 05:22:13;;;;;;;81.43;34.25;;;;;;;13.81;67.64;100930.47;4995286;28;20026;-80
2022/10/28 05:24:38;;;;;;;94.78;36.55;;;;;;;13.37;67.61;100863.56;4995174;28;20565;-80
2022/10/28 05:27:04;;;;;;;81.93;34.63;;;;;;;13.82;68.04;100921.50;4995220;28;20088;-80
2022/10/28 05:29:29;;;;;;;88.47;35.63;;;;;;;12.23;67.83;100666.31;4995054;28;20034;-80
2022/10/28 05:31:55;;;;;;;79.97;34.30;;;;;;;12.78;67.93;100783.22;4995093;28;20027;-80
2022/10/28 05:34:20;;;;;;;70.20;31.02;;;;;;;13.87;67.82;100927.16;5005704;28;20033;-80
2022/10/28 05:36:46;;;;;;;95.93;34.17;;;;;;;13.26;68.03;100851.44;5012313;28;20452;-80
2022/10/28 05:39:12;;;;;;;76.03;32.75;;;;;;;13.50;67.95;100871.06;5012895;28;20030;-80
2022/10/28 05:41:38;;;;;;;64.47;28.10;;;;;;;13.49;68.05;100864.09;4994428;28;20023;-79
2022/10/28 05:44:04;;;;;;;88.85;33.10;;;;;;;14.05;68.73;100968.66;4994189;28;20033;-80
2022/10/28 05:46:29;;;;;;;80.20;28.40;;;;;;;13.50;68.74;100869.25;5012084;28;20025;-80
2022/10/28 05:48:55;;;;;;;77.47;31.77;;;;;;;13.10;68.80;100800.19;5013486;28;20029;-80
2022/10/28 05:51:20;;;;;;;73.40;30.73;;;;;;;13.00;68.73;100779.13;5014847;28;20021;-79
2022/10/28 05:53:46;;;;;;;63.67;29.48;;;;;;;13.98;68.84;100931.31;5013318;28;20075;-79
2022/10/28 05:56:11;;;;;;;61.10;28.27;;;;;;;13.65;68.65;100877.38;5012034;28;20518;-80
2022/10/28 05:58:37;;;;;;;57.78;27.67;;;;;;;13.79;68.66;100876.72;5004894;28;20105;-80
2022/10/28 06:01:05;;;;;;;50.35;23.77;;;;;;;14.33;68.96;100964.69;5008606;28;20105;-79
2022/10/28 06:03:31;;;;;;;50.00;25.42;;;;;;;13.64;68.96;100850.00;5013708;28;20033;-80
2022/10/28 06:05:56;;;;;;;99.35;34.13;;;;;;;14.38;68.95;100966.84;5012654;28;20180;-79
2022/10/28 06:08:22;;;;;;;50.92;27.15;;;;;;;13.62;69.08;100867.09;5013939;28;20073;-79
2022/10/28 06:10:52;;;;;;;62.40;27.88;;;;;;;14.44;68.98;100972.34;5013596;28;20030;-80
2022/10/28 06:13:20;;;;;;;49.05;24.95;;;;;;;14.17;68.72;100927.50;5012250;28;20060;-80
2022/10/28 06:15:56;;;;;;;44.38;23.70;;;;;;;14.50;69.01;100971.66;5013205;28;20029;-79
2022/10/28 06:18:22;;;;;;;53.00;26.23;;;;;;;14.57;69.19;100972.66;5012472;28;20032;-79
2022/10/28 06:20:56;;;;;;;45.40;24.27;;;;;;;13.91;69.21;100867.41;4994845;28;20089;-79
2022/10/28 06:23:22;;;;;;;36.25;22.30;;;;;;;14.03;69.34;100890.97;5011514;28;20034;-80
2022/10/28 06:25:48;;;;;;;47.42;24.00;;;;;;;14.17;68.84;100901.78;5012681;28;20036;-79
2022/10/28 06:28:13;;;;;;;47.08;24.80;;;;;;;13.90;69.19;100859.63;5012279;28;20029;-80
2022/10/28 06:30:38;;;;;;;47.80;26.73;;;;;;;14.30;69.23;100930.47;5013884;28;20101;-79
2022/10/28 06:33:04;;;;;;;45.78;25.80;;;;;;;14.45;69.12;100944.78;5001429;28;20087;-80
2022/10/28 06:35:29;;;;;;;53.00;26.20;;;;;;;14.42;69.75;100949.56;5009772;28;20037;-79
2022/10/28 06:37:55;;;;;;;55.50;25.15;;;;;;;14.59;69.55;100970.66;5006542;28;20030;-79
2022/10/28 06:40:21;;;;;;;42.65;22.80;;;;;;;14.21;69.51;100910.25;5005556;28;20112;-79
2022/10/28 06:42:47;;;;;;;41.55;22.88;;;;;;;14.35;69.86;100940.59;4993303;28;20467;-79
2022/10/28 06:45:12;;;;;;;38.38;22.60;;;;;;;14.34;69.72;100931.81;5000341;28;20033;-79
2022/10/28 06:47:38;;;;;;;28.00;18.52;;;;;;;14.67;69.56;100979.59;5013182;28;20030;-79
2022/10/28 06:50:03;;;;;;;33.40;20.77;;;;;;;13.76;69.20;100834.59;5018378;28;20026;-80
2022/10/28 06:52:29;;;;;;;37.58;20.95;;;;;;;14.41;69.33;100937.28;5007054;28;20507;-79
2022/10/28 06:54:54;;;;;;;29.30;19.80;;;;;;;13.82;69.19;100855.16;5012712;28;20033;-79
2022/10/28 06:57:19;;;;;;;33.00;20.67;;;;;;;14.74;68.96;100978.75;5010158;28;20499;-79
2022/10/28 06:59:45;;;;;;;35.95;21.23;;;;;;;14.42;69.20;100955.75;5011182;28;20061;-79
2022/10/28 07:02:10;;;;;;;30.25;18.65;;;;;;;14.50;69.25;100942.44;5000560;28;20055;-79
2022/10/28 07:04:36;;;;;;;34.58;20.98;;;;;;;14.46;69.07;100933.16;5009253;28;20036;-79
2022/10/28 07:07:02;;;;;;;34.33;19.27;;;;;;;14.07;68.56;100850.63;5003874;28;20050;-79
2022/10/28 07:09:27;;;;;;;26.75;18.90;;;;;;;14.90;68.57;100978.75;5009619;28;20037;-79
2022/10/28 07:11:52;;;;;;;26.20;17.50;;;;;;;14.89;68.15;100971.78;5010592;28;20030;-78
2022/10/28 07:14:18;;;;;;;26.05;17.50;;;;;;;14.55;68.04;100912.69;4999704;28;20546;-79
2022/10/28 07:16:43;;;;;;;26.50;19.00;;;;;;;14.38;67.76;100860.56;5012477;28;20041;-79
2022/10/28 07:19:09;;;;;;;27.20;19.95;;;;;;;14.60;67.53;100887.25;5010981;28;20111;-79
2022/10/28 07:21:35;;;;;;;26.98;19.17;;;;;;;14.73;67.14;100873.41;5011755;28;20434;-79
2022/10/28 07:24:01;;;;;;;31.23;23.25;;;;;;;15.40;66.80;100974.88;5002007;28;20038;-79
2022/10/28 07:26:26;;;;;;;33.92;20.58;;;;;;;15.05;66.98;100922.16;4997702;28;20061;-79
2022/10/28 07:28:52;;;;;;;22.55;16.77;;;;;;;14.71;66.62;100861.31;4993621;28;20036;-79
2022/10/28 07:31:17;;;;;;;22.25;16.65;;;;;;;15.54;66.30;100976.78;5009273;28;20030;-79
2022/10/28 07:33:43;;;;;;;20.42;14.43;;;;;;;15.10;65.95;100894.06;5011711;28;20450;-79
2022/10/28 07:36:09;;;;;;;20.50;15.38;;;;;;;15.03;65.78;100874.47;5006699;28;20030;-79
2022/10/28 07:38:35;;;;;;;22.77;15.93;;;;;;;15.76;65.38;100979.72;5008167;28;20026;-79
2022/10/28 07:41:06;;;;;;;16.05;12.93;;;;;;;15.57;64.63;100962.31;5011697;28;20025;-79
2022/10/28 07:43:34;;;;;;;19.55;13.77;;;;;;;15.22;64.28;100874.03;5012289;28;20037;-78
2022/10/28 07:46:00;;;;;;;19.23;15.85;;;;;;;15.73;64.32;100929.47;5008894;28;20037;-79
2022/10/28 07:48:25;;;;;;;12.18;9.95;;;;;;;16.04;63.60;100977.34;5012492;28;20359;-78
2022/10/28 07:50:50;;;;;;;17.45;12.30;;;;;;;15.77;63.42;100931.59;5008479;28;20056;-79
2022/10/28 07:53:16;;;;;;;14.10;11.27;;;;;;;16.03;63.12;100981.84;5003689;28;20080;-78
2022/10/28 07:55:41;;;;;;;13.60;10.90;;;;;;;15.83;62.61;100922.91;5009019;28;20446;-78
2022/10/28 07:58:07;;;;;;;14.93;9.68;;;;;;;15.98;62.24;100925.63;5001155;28;20033;-79
2022/10/28 08:00:32;;;;;;;15.52;10.02;;;;;;;15.83;62.27;100892.78;5009229;28;20026;-79
2022/10/28 08:02:57;;;;;;;12.48;9.85;;;;;;;16.02;61.46;100902.09;5011689;28;20030;-81
2022/10/28 08:05:23;;;;;;;15.68;12.40;;;;;;;15.73;61.58;100841.59;5002590;28;20426;-79
2022/10/28 08:07:48;;;;;;;17.33;11.63;;;;;;;15.83;61.26;100852.84;5011272;28;20438;-79
2022/10/28 08:10:14;;;;;;;12.70;9.57;;;;;;;16.23;60.47;100923.56;5012271;28;20053;-80
2022/10/28 08:12:39;;;;;;;14.93;9.80;;;;;;;16.14;60.22;100887.34;4998689;28;20487;-80
2022/10/28 08:15:05;;;;;;;17.42;14.18;;;;;;;15.94;59.93;100832.91;4998617;28;20037;-80
2022/10/28 08:17:30;;;;;;;14.48;11.27;;;;;;;16.19;59.54;100864.47;4997877;28;20054;-80
2022/10/28 08:19:56;;;;;;;13.05;9.85;;;;;;;16.30;59.09;100863.19;4995438;28;20034;-80
2022/10/28 08:22:21;;;;;;;14.90;11.27;;;;;;;16.26;58.77;100851.25;4991183;28;20037;-80
2022/10/28 08:24:46;;;;;;;13.77;10.95;;;;;;;16.63;58.57;100902.84;4991728;28;20057;-80
2022/10/28 08:27:12;;;;;;;16.10;12.70;;;;;;;17.07;58.09;100974.88;4991681;28;20026;-79
2022/10/28 08:29:37;;;;;;;13.43;8.40;;;;;;;16.97;57.63;100932.47;4991376;28;20057;-79
2022/10/28 08:32:03;;;;;;;12.32;8.55;;;;;;;16.60;57.40;100855.22;4990561;28;20102;-80
2022/10/28 08:34:29;;;;;;;12.85;9.43;;;;;;;17.31;57.17;100953.25;4995850;28;20483;-79
2022/10/28 08:36:55;;;;;;;11.68;9.32;;;;;;;17.22;56.52;100926.84;5004638;28;20108;-79
2022/10/28 08:39:21;;;;;;;10.80;8.30;;;;;;;16.69;56.24;100862.13;5003637;28;20042;-80
2022/10/28 08:41:55;;;;;;;10.98;7.55;;;;;;;16.82;55.91;100856.97;5008868;28;20088;-80
2022/10/28 08:44:40;;;;;;;12.20;7.50;;;;;;;16.96;55.46;100872.13;5007916;28;20026;-78
2022/10/28 08:47:20;;;;;;;9.30;6.35;;;;;;;17.25;55.29;100910.44;5006800;28;20037;-80
2022/10/28 08:49:51;;;;;;;7.30;6.47;;;;;;;16.91;55.05;100828.34;5000468;28;20030;-80
2022/10/28 08:52:42;;;;;;;10.25;6.35;;;;;;;17.74;54.46;100943.47;5006983;28;20029;-81
2022/10/28 08:55:25;;;;;;;14.05;7.20;;;;;;;17.21;54.22;100842.44;5004718;28;20044;-80
2022/10/28 08:57:59;;;;;;;9.10;6.70;;;;;;;17.27;53.17;100839.03;5003245;28;20026;-80
2022/10/28 09:00:28;;;;;;;10.00;7.32;;;;;;;17.42;53.02;100877.16;5008901;28;20120;-80
2022/10/28 09:03:15;;;;;;;9.43;7.38;;;;;;;18.03;53.02;100941.69;5011147;28;20057;-80
2022/10/28 09:05:46;;;;;;;9.38;7.13;;;;;;;17.54;52.60;100850.78;5010598;28;20061;-79
2022/10/28 09:08:24;;;;;;;11.23;7.10;;;;;;;17.70;52.60;100861.22;5008744;28;20057;-80
2022/10/28 09:11:08;;;;;;;8.85;6.68;;;;;;;18.31;52.23;100939.03;5008672;28;20033;-80
2022/10/28 09:13:53;;;;;;;9.00;6.50;;;;;;;18.39;51.67;100926.34;4992942;28;20039;-80
2022/10/28 09:16:46;;;;;;;10.88;7.95;;;;;;;16.75;51.51;100653.34;4991855;28;20483;-80
2022/10/28 09:19:34;;;;;;;8.27;5.88;;;;;;;18.53;50.54;100924.59;5003655;28;20052;-80
2022/10/28 09:22:07;;;;;;;8.18;5.80;;;;;;;18.59;50.75;100925.69;4996261;28;20469;-80
2022/10/28 09:24:50;;;;;;;7.18;5.43;;;;;;;18.28;50.07;100885.97;4999663;28;20029;-80
2022/10/28 09:27:30;;;;;;;8.82;5.80;;;;;;;18.60;50.07;100908.63;5007183;28;20555;-80
2022/10/28 09:30:27;;;;;;;8.95;6.50;;;;;;;18.71;49.97;100913.44;5005728;28;20057;-79
2022/10/28 09:33:06;;;;;;;8.35;5.18;;;;;;;18.09;50.05;100792.06;5008505;28;20494;-80
2022/10/28 09:35:40;;;;;;;7.72;4.97;;;;;;;19.00;49.02;100902.47;5008965;28;20053;-78
2022/10/28 09:38:17;;;;;;;7.22;5.28;;;;;;;19.12;48.63;100908.06;4991068;28;20495;-78
2022/10/28 09:40:49;;;;;;;8.98;4.65;;;;;;;19.18;48.31;100896.53;4991304;28;20030;-78
2022/10/28 09:43:20;;;;;;;;;;;;;;;19.08;47.38;100895.28;5004639;28;20034;-78
2022/10/28 09:45:48;;;;;;;5.65;5.13;;;;;;;18.59;47.83;100818.69;5001850;28;20374;-80
2022/10/28 09:48:16;;;;;;;6.40;5.68;;;;;;;19.31;47.34;100890.41;5008232;28;20121;-80
2022/10/28 09:50:43;;;;;;;8.43;5.45;;;;;;;19.41;46.91;100890.88;5012484;28;20501;-78
2022/10/28 09:53:42;;;;;;;5.22;3.58;;;;;;;18.91;45.87;100804.63;5009354;28;20108;-78
2022/10/28 09:56:08;;;;;;;4.93;3.50;;;;;;;19.49;45.67;100885.31;4996542;28;20058;-80
2022/10/28 09:58:35;;;;;;;6.38;4.55;;;;;;;19.57;45.43;100876.28;5001128;28;20041;-80
2022/10/28 10:01:02;;;;;;;7.72;4.40;;;;;;;19.55;45.15;100846.22;4996498;28;20120;-80
2022/10/28 10:03:27;;;;;;;5.68;4.20;;;;;;;19.34;44.98;100815.03;5013711;28;20037;-80
2022/10/28 10:05:57;;;;;;;5.32;3.05;;;;;;;19.59;44.09;100834.88;5013904;28;20026;-80
2022/10/28 10:08:23;;;;;;;7.80;4.45;;;;;;;19.79;43.92;100860.84;5011899;28;20046;-80
2022/10/28 10:10:58;;;;;;;5.93;4.15;;;;;;;19.43;43.80;100792.38;5007071;28;20065;-79
2022/10/28 10:13:28;;;;;;;4.20;3.80;;;;;;;19.72;43.20;100809.09;4993777;28;20110;-78
2022/10/28 10:16:06;;;;;;;6.72;4.30;;;;;;;20.10;42.55;100852.19;4999159;28;20030;-80
2022/10/28 10:18:31;;;;;;;9.43;7.07;;;;;;;19.74;42.41;100789.13;5005905;28;20395;-79
2022/10/28 10:20:58;;;;;;;7.60;5.75;;;;;;;20.26;42.28;100859.81;5044361;28;20021;-79
2022/10/28 10:23:34;;;;;;;5.47;3.47;;;;;;;20.27;41.16;100845.34;5013246;28;20026;-79
2022/10/28 10:26:06;;;;;;;5.53;4.05;;;;;;;20.28;41.21;100847.84;5010589;28;20022;-79
2022/10/28 10:28:35;;;;;;;5.53;3.92;;;;;;;20.11;41.38;100801.03;5010414;28;20034;-79
2022/10/28 10:31:07;;;;;;;6.45;3.80;;;;;;;19.98;40.97;100774.22;5011026;28;20092;-79
2022/10/28 10:33:36;;;;;;;3.70;3.30;;;;;;;20.43;40.70;100833.38;5009602;28;20030;-79
2022/10/28 10:36:11;;;;;;;6.63;2.63;;;;;;;20.36;39.96;100830.69;5003409;28;20030;-79
2022/10/28 10:38:45;;;;;;;5.18;3.00;;;;;;;19.84;40.11;100721.69;5010991;28;20029;-79
2022/10/28 10:41:10;;;;;;;7.10;4.45;;;;;;;20.19;40.40;100775.84;5013342;28;20025;-79
2022/10/28 10:43:36;;;;;;;9.13;4.78;;;;;;;20.18;40.18;100745.53;5010433;28;20525;-80
2022/10/28 10:46:11;;;;;;;6.57;5.00;;;;;;;20.49;40.17;100786.94;5008483;28;20083;-79
2022/10/28 10:48:37;;;;;;;9.38;5.32;;;;;;;20.72;39.99;100822.13;5005813;28;20303;-79
2022/10/28 10:51:10;;;;;;;10.27;4.80;;;;;;;20.65;39.71;100797.19;4996037;28;20105;-79
2022/10/28 10:53:38;;;;;;;5.85;4.03;;;;;;;20.63;39.07;100789.34;5007596;28;20027;-79
2022/10/28 10:56:07;;;;;;;11.80;9.38;;;;;;;20.84;39.07;100816.94;4994593;28;20026;-79
2022/10/28 10:58:54;;;;;;;4.72;3.92;;;;;;;20.53;37.69;100766.69;4998714;28;20196;-79
2022/10/28 11:01:23;;;;;;;16.35;14.10;;;;;;;20.44;39.11;100752.69;4993889;28;20106;-79
2022/10/28 11:04:00;;;;;;;6.07;4.57;;;;;;;20.81;37.39;100802.09;5006821;28;20517;-79
2022/10/28 11:06:29;;;;;;;9.57;6.43;;;;;;;20.62;38.95;100786.88;5004888;28;20101;-79
2022/10/28 11:09:01;;;;;;;6.82;4.03;;;;;;;20.28;38.64;100772.72;5015076;28;20025;-79
2022/10/28 11:11:38;;;;;;;8.57;5.30;;;;;;;20.66;38.33;100814.09;4996904;28;20037;-79
2022/10/28 11:14:07;;;;;;;6.95;4.15;;;;;;;20.12;38.95;100759.78;5001572;28;20033;-79
2022/10/28 11:16:32;;;;;;;9.52;6.07;;;;;;;20.48;39.32;100791.47;5012176;28;20104;-80
2022/10/28 11:19:14;;;;;;;10.27;6.30;;;;;;;20.61;39.27;100804.00;5026384;28;20060;-79
2022/10/28 11:21:55;;;;;;;12.60;5.90;;;;;;;20.61;39.49;100798.63;5009767;28;20396;-78
2022/10/28 11:24:27;;;;;;;7.32;4.25;;;;;;;20.58;39.65;100796.38;5010383;28;20030;-79
2022/10/28 11:27:15;;;;;;;;;;;;;;;20.41;38.94;100785.31;5011788;28;20038;-79
2022/10/28 11:29:41;;;;;;;10.13;5.00;;;;;;;20.28;39.76;100762.00;5010180;28;19931;-79
2022/10/28 11:32:32;;;;;;;4.22;3.20;;;;;;;20.49;38.26;100789.59;5007474;28;20030;-79
2022/10/28 11:35:18;;;;;;;5.80;4.13;;;;;;;20.43;38.89;100788.59;5010780;28;20030;-79